Time;durP1;ratioP1;P1;durP2;ratioP2;P2;SDS_P1;SDS_P2;PMS_P1;PMS_P2;Temp;Humidity;BMP_temperature;BMP_pressure;BME280_temperature;BME280_humidity;BME280_pressure;Samples;Min_cycle;Max_cycle;Signal;HPM_P1;HPM_P2
2022/08/14 00:00:46;;;;;;;1.30;0.10;;;19.20;84.10;;;;;;5010155;28;20042;-76
2022/08/14 00:03:23;;;;;;;0.10;0.00;;;19.40;85.70;;;;;;5019932;28;20064;-77
2022/08/14 00:05:52;;;;;;;0.35;0.10;;;19.80;84.70;;;;;;5028805;28;20037;-77
2022/08/14 00:08:19;;;;;;;0.00;0.00;;;20.10;84.00;;;;;;5029148;28;20033;-76
2022/08/14 00:10:47;;;;;;;2.00;0.10;;;20.70;83.40;;;;;;5028489;28;20047;-77
2022/08/14 00:13:17;;;;;;;0.25;0.05;;;20.90;82.10;;;;;;5032188;28;20055;-76
2022/08/14 00:15:48;;;;;;;0.10;0.00;;;20.40;82.70;;;;;;5015564;28;20037;-76
2022/08/14 00:18:20;;;;;;;0.00;0.00;;;19.60;83.00;;;;;;5012790;28;20057;-78
2022/08/14 00:20:48;;;;;;;0.05;0.00;;;18.60;85.70;;;;;;5004809;28;20041;-77
2022/08/14 00:23:17;;;;;;;1.02;0.10;;;18.10;86.50;;;;;;4995989;28;20026;-75
2022/08/14 00:25:47;;;;;;;0.00;0.00;;;17.50;87.50;;;;;;5003952;28;20025;-76
2022/08/14 00:28:15;;;;;;;0.35;0.30;;;16.80;89.70;;;;;;5011352;28;20136;-76
2022/08/14 00:30:43;;;;;;;0.28;0.28;;;16.60;90.30;;;;;;5005873;28;20044;-76
2022/08/14 00:33:10;;;;;;;0.30;0.08;;;16.70;89.90;;;;;;5015316;28;20022;-75
2022/08/14 00:35:38;;;;;;;0.00;0.00;;;16.50;89.90;;;;;;5010226;28;20037;-77
2022/08/14 00:38:05;;;;;;;0.00;0.00;;;16.40;90.10;;;;;;5006187;28;20037;-76
2022/08/14 00:40:32;;;;;;;0.30;0.10;;;16.40;90.60;;;;;;5006820;28;20364;-77
2022/08/14 00:43:00;;;;;;;1.75;0.20;;;16.50;90.60;;;;;;5011398;28;20029;-76
2022/08/14 00:45:28;;;;;;;0.00;0.00;;;17.00;90.00;;;;;;5008740;28;20061;-76
2022/08/14 00:47:57;;;;;;;0.43;0.10;;;17.10;88.70;;;;;;5011154;28;20037;-78
2022/08/14 00:50:24;;;;;;;0.17;0.10;;;16.40;88.90;;;;;;5007931;28;20046;-76
2022/08/14 00:52:52;;;;;;;0.80;0.10;;;16.00;89.50;;;;;;5001613;28;20102;-76
2022/08/14 00:55:21;;;;;;;0.05;0.05;;;15.90;90.00;;;;;;4999463;28;20030;-75
2022/08/14 00:58:29;;;;;;;0.88;0.05;;;15.80;89.10;;;;;;4992100;28;20064;-75
2022/08/14 01:00:36;;;;;;;0.30;0.10;;;15.80;90.10;;;;;;5006810;28;20065;-75
2022/08/14 01:03:05;;;;;;;0.10;0.00;;;15.90;89.20;;;;;;5006966;28;20370;-75
2022/08/14 01:05:33;;;;;;;2.58;1.17;;;16.40;89.50;;;;;;5009358;28;20411;-78
2022/08/14 01:08:05;;;;;;;0.10;0.10;;;16.90;88.40;;;;;;5009898;28;20025;-76
2022/08/14 01:10:50;;;;;;;0.77;0.03;;;17.40;87.70;;;;;;5014863;28;20029;-77
2022/08/14 01:13:21;;;;;;;0.00;0.00;;;17.90;87.80;;;;;;4994250;28;20084;-75
2022/08/14 01:15:52;;;;;;;0.05;0.00;;;17.60;85.50;;;;;;5003455;28;20042;-76
2022/08/14 01:21:10;;;;;;;0.10;0.10;;;17.00;87.00;;;;;;5003486;28;20073;-74
2022/08/14 01:23:46;;;;;;;0.10;0.10;;;17.10;86.90;;;;;;4999708;28;20037;-77
2022/08/14 01:26:19;;;;;;;0.20;0.05;;;17.50;86.40;;;;;;4995336;28;20088;-76
2022/08/14 01:28:54;;;;;;;0.10;0.10;;;17.60;85.10;;;;;;5003917;28;20473;-76
2022/08/14 01:31:27;;;;;;;0.03;0.00;;;17.50;86.40;;;;;;4998502;28;20030;-77
2022/08/14 01:33:57;;;;;;;0.00;0.00;;;17.80;85.70;;;;;;5006022;28;20029;-76
2022/08/14 01:36:26;;;;;;;0.00;0.00;;;17.80;85.80;;;;;;5005128;28;20092;-78
2022/08/14 01:38:56;;;;;;;0.38;0.20;;;18.00;86.20;;;;;;5004539;28;20065;-75
2022/08/14 01:41:27;;;;;;;0.47;0.38;;;17.80;84.00;;;;;;5001013;28;20021;-75
2022/08/14 01:44:00;;;;;;;0.25;0.10;;;17.30;85.00;;;;;;5006075;28;20034;-78
2022/08/14 01:46:31;;;;;;;0.10;0.00;;;17.00;85.60;;;;;;5004173;28;20037;-76
2022/08/14 01:48:59;;;;;;;0.10;0.00;;;17.00;85.80;;;;;;5003679;28;20026;-78
2022/08/14 01:51:28;;;;;;;1.45;0.20;;;17.20;86.20;;;;;;4999063;28;20495;-74
2022/08/14 01:54:01;;;;;;;0.08;0.00;;;17.50;85.20;;;;;;4997527;28;20045;-76
2022/08/14 01:56:41;;;;;;;0.17;0.05;;;17.70;85.70;;;;;;4994961;28;20049;-75
2022/08/14 01:59:20;;;;;;;0.90;0.10;;;17.90;85.40;;;;;;5006678;28;20096;-75
2022/08/14 02:01:52;;;;;;;0.30;0.08;;;17.60;84.60;;;;;;5001237;28;20338;-74
2022/08/14 02:04:21;;;;;;;0.65;0.10;;;17.40;86.30;;;;;;5006979;28;20034;-76
2022/08/14 02:06:49;;;;;;;0.10;0.00;;;17.20;86.20;;;;;;5000981;28;20046;-77
2022/08/14 02:09:19;;;;;;;0.80;0.00;;;17.00;87.90;;;;;;5008440;28;20030;-75
2022/08/14 02:11:47;;;;;;;0.20;0.05;;;17.10;88.30;;;;;;5000303;28;20030;-75
2022/08/14 02:14:14;;;;;;;0.20;0.10;;;17.30;88.10;;;;;;5009748;28;20036;-75
2022/08/14 02:16:47;;;;;;;0.95;0.20;;;17.00;87.00;;;;;;5001427;28;20045;-78
2022/08/14 02:19:17;;;;;;;0.50;0.10;;;17.00;88.60;;;;;;5006044;28;20025;-76
2022/08/14 02:21:47;;;;;;;0.00;0.00;;;17.20;87.70;;;;;;5004085;28;20018;-75
2022/08/14 02:24:16;;;;;;;0.00;0.00;;;17.30;88.50;;;;;;5006213;28;20038;-75
2022/08/14 02:26:48;;;;;;;0.17;0.10;;;17.40;88.30;;;;;;4999771;28;20383;-77
2022/08/14 02:29:22;;;;;;;0.13;0.00;;;17.20;88.10;;;;;;4996034;28;20057;-78
2022/08/14 02:31:52;;;;;;;0.10;0.10;;;17.20;88.40;;;;;;4998314;28;20026;-78
2022/08/14 02:34:28;;;;;;;0.38;0.10;;;17.20;88.80;;;;;;5000366;28;20034;-76
2022/08/14 02:37:01;;;;;;;0.10;0.08;;;17.20;88.40;;;;;;4998642;28;20175;-77
2022/08/14 02:39:31;;;;;;;0.43;0.10;;;17.30;88.20;;;;;;4998518;28;20465;-77
2022/08/14 02:42:01;;;;;;;0.30;0.10;;;17.40;88.30;;;;;;5002258;28;20525;-76
2022/08/14 02:44:29;;;;;;;0.98;0.17;;;17.50;88.20;;;;;;4998013;28;20079;-76
2022/08/14 02:46:56;;;;;;;0.10;0.10;;;17.60;87.80;;;;;;4997345;28;20033;-75
2022/08/14 02:49:27;;;;;;;0.10;0.10;;;17.80;88.40;;;;;;5000651;28;20034;-76
2022/08/14 02:51:57;;;;;;;0.00;0.00;;;18.60;87.40;;;;;;5002484;28;20039;-75
2022/08/14 02:54:26;;;;;;;0.00;0.00;;;19.20;84.20;;;;;;4996134;28;20618;-75
2022/08/14 02:56:56;;;;;;;1.20;0.10;;;19.20;82.70;;;;;;5001821;28;20049;-76
2022/08/14 02:59:27;;;;;;;1.45;0.10;;;18.40;84.70;;;;;;5005405;28;20543;-77
2022/08/14 03:01:56;;;;;;;0.20;0.10;;;17.80;85.70;;;;;;5004416;28;20497;-76
2022/08/14 03:04:27;;;;;;;0.05;0.00;;;17.50;85.80;;;;;;5006183;28;20022;-76
2022/08/14 03:06:54;;;;;;;0.13;0.08;;;17.30;86.30;;;;;;5008001;28;20068;-77
2022/08/14 03:09:22;;;;;;;0.10;0.10;;;17.00;86.90;;;;;;5002491;28;20038;-77
2022/08/14 03:11:51;;;;;;;0.15;0.10;;;17.00;87.80;;;;;;5005815;28;20083;-77
2022/08/14 03:14:20;;;;;;;0.17;0.10;;;17.20;89.00;;;;;;5006390;28;20068;-75
2022/08/14 03:16:49;;;;;;;1.08;0.10;;;17.00;88.00;;;;;;5001037;28;20045;-77
2022/08/14 03:19:19;;;;;;;0.30;0.30;;;17.00;88.30;;;;;;5005090;28;20034;-77
2022/08/14 03:21:46;;;;;;;0.20;0.08;;;16.90;88.60;;;;;;5008791;28;20120;-74
2022/08/14 03:24:14;;;;;;;1.52;0.35;;;17.00;89.20;;;;;;5007156;28;20058;-75
2022/08/14 03:26:44;;;;;;;0.17;0.10;;;16.90;88.30;;;;;;5006384;28;20045;-75
2022/08/14 03:29:14;;;;;;;0.20;0.10;;;16.80;89.40;;;;;;5004938;28;20076;-76
2022/08/14 03:31:42;;;;;;;0.22;0.10;;;16.80;89.70;;;;;;5007472;28;20485;-77
2022/08/14 03:34:11;;;;;;;0.43;0.17;;;16.80;89.00;;;;;;5002842;28;20112;-75
2022/08/14 03:36:39;;;;;;;0.98;0.30;;;16.90;89.60;;;;;;5007356;28;20038;-76
2022/08/14 03:39:08;;;;;;;0.30;0.10;;;17.10;90.00;;;;;;5002088;28;20060;-76
2022/08/14 03:41:36;;;;;;;0.52;0.10;;;17.20;89.90;;;;;;5008702;28;20072;-78
2022/08/14 03:44:05;;;;;;;0.08;0.00;;;17.30;88.80;;;;;;5017570;28;20014;-77
2022/08/14 03:46:37;;;;;;;0.35;0.20;;;17.20;89.80;;;;;;5011892;28;20037;-75
2022/08/14 03:49:06;;;;;;;1.20;0.35;;;17.20;89.80;;;;;;5009153;28;20217;-77
2022/08/14 03:51:36;;;;;;;0.35;0.10;;;17.10;89.50;;;;;;5005544;28;20050;-76
2022/08/14 03:54:11;;;;;;;0.32;0.13;;;17.20;89.80;;;;;;5010032;28;20062;-75
2022/08/14 03:56:43;;;;;;;0.10;0.00;;;17.10;90.20;;;;;;5009364;28;20049;-76
2022/08/14 03:59:12;;;;;;;0.63;0.10;;;17.10;90.30;;;;;;5006598;28;20034;-75
2022/08/14 04:01:40;;;;;;;0.17;0.00;;;17.10;88.90;;;;;;5001975;28;20037;-76
2022/08/14 04:04:09;;;;;;;0.55;0.15;;;17.10;88.30;;;;;;5010358;28;20392;-77
2022/08/14 04:06:38;;;;;;;0.20;0.17;;;17.10;88.30;;;;;;5009550;28;20108;-76
2022/08/14 04:09:07;;;;;;;0.25;0.10;;;17.10;88.70;;;;;;5023194;28;20100;-76
2022/08/14 04:11:36;;;;;;;0.10;0.00;;;17.00;88.70;;;;;;5005235;28;20421;-75
2022/08/14 04:14:04;;;;;;;0.65;0.00;;;17.00;89.90;;;;;;5015783;28;20092;-76
2022/08/14 04:16:32;;;;;;;0.10;0.00;;;17.00;88.80;;;;;;5009683;28;20038;-77
2022/08/14 04:19:03;;;;;;;0.60;0.10;;;17.40;88.70;;;;;;5005472;28;20030;-75
2022/08/14 04:21:31;;;;;;;0.20;0.10;;;18.20;89.10;;;;;;5004856;28;20091;-74
2022/08/14 04:24:00;;;;;;;0.20;0.03;;;18.70;86.30;;;;;;5009073;28;20033;-79
2022/08/14 04:26:30;;;;;;;0.10;0.10;;;18.90;86.80;;;;;;4997885;28;20404;-74
2022/08/14 04:28:58;;;;;;;0.00;0.00;;;19.00;85.70;;;;;;5006187;28;20104;-78
2022/08/14 04:31:27;;;;;;;0.08;0.00;;;18.80;84.90;;;;;;4997409;28;20049;-79
2022/08/14 04:33:54;;;;;;;0.00;0.00;;;18.40;85.10;;;;;;4998318;28;20042;-77
2022/08/14 04:36:21;;;;;;;0.03;0.00;;;18.10;85.40;;;;;;4993922;28;20100;-76
2022/08/14 04:44:20;;;;;;;0.00;0.00;;;17.40;88.00;;;;;;5015027;28;20044;-78
2022/08/14 04:49:35;;;;;;;0.23;0.10;;;17.00;88.60;;;;;;5005162;28;20096;-76
2022/08/14 04:52:03;;;;;;;0.28;0.10;;;17.10;88.80;;;;;;5026970;28;20038;-75
2022/08/14 04:54:31;;;;;;;0.22;0.10;;;17.20;89.00;;;;;;5007605;28;20025;-77
2022/08/14 04:56:58;;;;;;;0.00;0.00;;;17.40;88.50;;;;;;5010778;28;20038;-76
2022/08/14 04:59:25;;;;;;;0.75;0.00;;;17.40;89.00;;;;;;5012546;28;20433;-77
2022/08/14 05:01:54;;;;;;;0.00;0.00;;;17.50;89.40;;;;;;4998434;28;20026;-76
2022/08/14 05:04:23;;;;;;;0.30;0.00;;;17.50;88.50;;;;;;5013135;28;20084;-75
2022/08/14 05:06:53;;;;;;;0.00;0.00;;;17.50;89.10;;;;;;5016596;28;20329;-75
2022/08/14 05:09:21;;;;;;;0.05;0.00;;;17.60;89.10;;;;;;5014008;28;20074;-74
2022/08/14 05:11:49;;;;;;;0.00;0.00;;;17.60;89.10;;;;;;5010559;28;20060;-75
2022/08/14 05:14:17;;;;;;;0.00;0.00;;;17.60;89.20;;;;;;5011529;28;20029;-77
2022/08/14 05:16:45;;;;;;;0.00;0.00;;;17.50;88.80;;;;;;5001187;28;20026;-76
2022/08/14 05:19:12;;;;;;;0.50;0.10;;;17.50;89.80;;;;;;5010923;28;20024;-75
2022/08/14 05:21:41;;;;;;;0.00;0.00;;;17.50;89.90;;;;;;5009488;28;20033;-75
2022/08/14 05:24:11;;;;;;;0.22;0.10;;;17.60;90.20;;;;;;5007103;28;20087;-78
2022/08/14 05:26:43;;;;;;;0.20;0.08;;;17.70;89.70;;;;;;5009611;28;20056;-77
2022/08/14 05:29:10;;;;;;;0.30;0.00;;;17.60;89.50;;;;;;5009656;28;20068;-76
2022/08/14 05:31:40;;;;;;;0.10;0.10;;;17.50;90.10;;;;;;5001933;28;20108;-75
2022/08/14 05:34:09;;;;;;;0.40;0.10;;;17.50;90.10;;;;;;5010889;28;20064;-81
2022/08/14 05:36:36;;;;;;;0.25;0.10;;;17.50;89.10;;;;;;5009054;28;20044;-78
2022/08/14 05:39:05;;;;;;;0.00;0.00;;;17.50;89.80;;;;;;5016919;28;20022;-79
2022/08/14 05:41:33;;;;;;;0.08;0.00;;;17.50;88.80;;;;;;5022001;28;20483;-76
2022/08/14 05:44:01;;;;;;;0.20;0.00;;;17.30;89.00;;;;;;5032989;28;20025;-78
2022/08/14 05:46:28;;;;;;;0.20;0.10;;;17.20;89.00;;;;;;5007872;28;20029;-80
2022/08/14 05:48:58;;;;;;;0.00;0.00;;;17.40;89.40;;;;;;5014806;28;20030;-80
2022/08/14 05:51:27;;;;;;;0.00;0.00;;;17.40;88.40;;;;;;5024570;28;20045;-79
2022/08/14 05:53:55;;;;;;;0.10;0.00;;;17.50;88.60;;;;;;5030950;28;20029;-79
2022/08/14 05:56:24;;;;;;;0.10;0.00;;;17.40;88.30;;;;;;5015783;28;20038;-81
2022/08/14 05:58:52;;;;;;;0.00;0.00;;;17.20;88.80;;;;;;5023417;28;20357;-82
2022/08/14 06:01:20;;;;;;;0.70;0.10;;;17.30;89.90;;;;;;5000798;28;20022;-83
2022/08/14 06:03:47;;;;;;;0.40;0.32;;;17.40;89.20;;;;;;4992225;28;20033;-82
2022/08/14 06:06:14;;;;;;;0.10;0.00;;;17.50;88.80;;;;;;5004418;28;20026;-82
2022/08/14 06:08:42;;;;;;;0.05;0.00;;;17.50;89.20;;;;;;5018363;28;20030;-85
2022/08/14 06:11:10;;;;;;;1.33;0.10;;;17.60;89.10;;;;;;5011904;28;20026;-83
2022/08/14 06:13:39;;;;;;;0.15;0.10;;;17.40;88.90;;;;;;4999067;28;20057;-84
2022/08/14 06:16:07;;;;;;;0.28;0.00;;;17.10;89.80;;;;;;5011104;28;20042;-80
2022/08/14 06:18:35;;;;;;;0.10;0.10;;;16.90;89.90;;;;;;5007083;28;20052;-77
2022/08/14 06:21:04;;;;;;;0.28;0.00;;;16.70;90.30;;;;;;5013588;28;20037;-79
2022/08/14 06:23:31;;;;;;;0.38;0.10;;;16.50;90.70;;;;;;5009524;28;20021;-78
2022/08/14 06:25:58;;;;;;;0.20;0.10;;;16.30;91.00;;;;;;5014295;28;20461;-79
2022/08/14 06:28:27;;;;;;;1.55;0.38;;;16.10;91.10;;;;;;5015178;28;20040;-78
2022/08/14 06:30:54;;;;;;;0.10;0.10;;;16.00;90.90;;;;;;4996180;28;20058;-81
2022/08/14 06:33:23;;;;;;;0.17;0.10;;;15.90;91.00;;;;;;4995841;28;20104;-83
2022/08/14 06:35:50;;;;;;;0.10;0.10;;;15.80;91.10;;;;;;5012459;28;20041;-81
2022/08/14 06:38:20;;;;;;;0.30;0.10;;;15.80;90.70;;;;;;5010563;28;20042;-82
2022/08/14 06:40:49;;;;;;;0.00;0.00;;;15.90;90.70;;;;;;4999936;28;20040;-80
2022/08/14 06:43:18;;;;;;;0.43;0.10;;;16.00;90.60;;;;;;5008228;28;20037;-82
2022/08/14 06:45:46;;;;;;;0.50;0.20;;;16.00;90.80;;;;;;5008989;28;20041;-81
2022/08/14 06:48:23;;;;;;;1.27;0.30;;;16.00;90.90;;;;;;5001844;28;20525;-83
2022/08/14 06:50:52;;;;;;;0.20;0.10;;;16.00;91.00;;;;;;5007505;28;20563;-83
2022/08/14 06:53:19;;;;;;;0.10;0.10;;;16.00;91.00;;;;;;5014094;28;20061;-88
2022/08/14 06:55:48;;;;;;;0.15;0.10;;;15.90;91.10;;;;;;5011155;28;20044;-86
2022/08/14 06:58:18;;;;;;;0.10;0.00;;;15.90;91.00;;;;;;5012643;28;20492;-81
2022/08/14 07:06:19;;;;;;;1.00;0.10;;;15.50;91.30;;;;;;5011972;28;20044;-81
2022/08/14 07:08:46;;;;;;;0.68;0.20;;;15.40;91.60;;;;;;5030495;28;20455;-81
2022/08/14 07:11:14;;;;;;;0.77;0.13;;;15.20;91.90;;;;;;5015899;28;20034;-78
2022/08/14 07:13:41;;;;;;;0.22;0.10;;;15.00;92.40;;;;;;5025658;28;20030;-80
2022/08/14 07:16:11;;;;;;;0.35;0.25;;;14.90;92.60;;;;;;5016708;28;20432;-76
2022/08/14 07:18:40;;;;;;;0.10;0.10;;;14.70;93.00;;;;;;5012704;28;20033;-78
2022/08/14 07:21:08;;;;;;;0.10;0.00;;;14.60;93.10;;;;;;5009936;28;20065;-78
2022/08/14 07:23:36;;;;;;;0.25;0.10;;;14.50;93.20;;;;;;5013541;28;20033;-77
2022/08/14 07:26:05;;;;;;;0.85;0.10;;;14.40;93.20;;;;;;5000126;28;20026;-75
2022/08/14 07:28:35;;;;;;;0.10;0.10;;;14.30;93.40;;;;;;5009963;28;20112;-78
2022/08/14 07:31:05;;;;;;;0.00;0.00;;;14.20;93.60;;;;;;5018461;28;20047;-77
2022/08/14 07:34:00;;;;;;;0.20;0.10;;;14.20;93.60;;;;;;4998660;28;20113;-75
2022/08/14 07:36:27;;;;;;;0.17;0.10;;;14.10;93.70;;;;;;4995921;28;20054;-85
2022/08/14 07:38:55;;;;;;;0.85;0.50;;;14.00;93.80;;;;;;5011372;28;20171;-79
2022/08/14 07:41:22;;;;;;;1.80;0.40;;;14.00;93.90;;;;;;5005228;28;20033;-79
2022/08/14 07:43:49;;;;;;;1.13;0.30;;;13.90;93.90;;;;;;5027001;28;20029;-78
2022/08/14 07:46:17;;;;;;;0.80;0.40;;;13.80;94.00;;;;;;5011561;28;20690;-80
2022/08/14 07:48:44;;;;;;;0.45;0.20;;;13.80;94.10;;;;;;4995057;28;20029;-80
2022/08/14 07:51:14;;;;;;;0.47;0.25;;;13.70;94.10;;;;;;5011140;28;21155;-78
2022/08/14 07:53:41;;;;;;;0.47;0.20;;;13.70;94.10;;;;;;5018322;28;20034;-80
2022/08/14 07:56:09;;;;;;;0.90;0.55;;;13.60;94.10;;;;;;4999866;28;20058;-80
2022/08/14 07:58:37;;;;;;;1.15;0.50;;;13.60;94.20;;;;;;5008206;28;20026;-82
2022/08/14 08:01:06;;;;;;;1.17;0.30;;;13.50;94.30;;;;;;5011389;28;20042;-76
2022/08/14 08:03:34;;;;;;;0.68;0.50;;;13.50;94.20;;;;;;5012091;28;20057;-81
2022/08/14 08:06:03;;;;;;;1.38;0.90;;;13.50;94.20;;;;;;5000278;28;20066;-79
2022/08/14 08:08:33;;;;;;;3.17;1.60;;;13.40;94.30;;;;;;5004702;28;20026;-78
2022/08/14 08:11:05;;;;;;;0.65;0.50;;;13.40;94.50;;;;;;5029787;28;20038;-79
2022/08/14 08:13:34;;;;;;;1.30;0.80;;;13.30;94.40;;;;;;5012369;28;20758;-79
2022/08/14 08:16:05;;;;;;;1.30;1.20;;;13.30;94.40;;;;;;5009999;28;20084;-79
2022/08/14 08:18:33;;;;;;;1.20;1.02;;;13.20;94.60;;;;;;5010701;28;20057;-78
2022/08/14 08:21:00;;;;;;;1.15;0.80;;;13.10;94.70;;;;;;5009345;28;20041;-79
2022/08/14 08:23:31;;;;;;;1.33;0.95;;;13.10;94.80;;;;;;4992106;28;20038;-79
2022/08/14 08:25:59;;;;;;;1.00;0.80;;;13.10;94.80;;;;;;4998363;28;20113;-74
2022/08/14 08:28:28;;;;;;;1.17;0.50;;;13.00;94.80;;;;;;4997508;28;20026;-77
2022/08/14 08:31:02;;;;;;;0.80;0.60;;;13.10;94.80;;;;;;4998493;28;20085;-79
2022/08/14 08:33:34;;;;;;;0.80;0.40;;;13.10;94.80;;;;;;4999852;28;20053;-78
2022/08/14 08:36:10;;;;;;;0.88;0.70;;;13.00;95.00;;;;;;4999308;28;20038;-78
2022/08/14 08:38:37;;;;;;;2.78;1.55;;;13.00;95.00;;;;;;4999444;28;20022;-75
2022/08/14 08:41:05;;;;;;;1.85;1.15;;;12.90;95.10;;;;;;5011314;28;20179;-79
2022/08/14 08:43:34;;;;;;;2.38;0.90;;;12.90;95.10;;;;;;5017412;28;20029;-77
2022/08/14 08:46:04;;;;;;;0.80;0.43;;;12.80;95.20;;;;;;5005478;28;20117;-78
2022/08/14 08:48:50;;;;;;;0.35;0.25;;;12.70;95.40;;;;;;4999814;28;20168;-79
2022/08/14 08:51:43;;;;;;;0.30;0.20;;;12.70;95.40;;;;;;4992888;28;20603;-79
2022/08/14 08:54:16;;;;;;;1.73;0.60;;;12.70;95.40;;;;;;4988404;28;20725;-77
2022/08/14 08:56:51;;;;;;;2.85;0.50;;;12.70;95.50;;;;;;5010297;28;20488;-77
2022/08/14 08:59:35;;;;;;;2.08;0.80;;;12.70;95.50;;;;;;5084190;27;20494;-78
2022/08/14 09:02:06;;;;;;;0.70;0.50;;;12.70;95.60;;;;;;5073733;28;20021;-79
2022/08/14 09:04:44;;;;;;;2.10;1.50;;;12.70;95.70;;;;;;5071544;28;22600;-78
2022/08/14 09:07:13;;;;;;;2.08;1.30;;;12.60;95.80;;;;;;5078584;28;20118;-79
2022/08/14 09:09:52;;;;;;;2.67;1.08;;;12.60;95.90;;;;;;5071674;28;20036;-79
2022/08/14 09:12:23;;;;;;;1.88;0.82;;;12.60;96.00;;;;;;5085870;28;20032;-79
2022/08/14 09:14:52;;;;;;;1.45;0.73;;;12.60;96.10;;;;;;5085228;28;20485;-78
2022/08/14 09:17:19;;;;;;;1.35;0.75;;;12.60;96.10;;;;;;5078907;28;20020;-78
2022/08/14 09:19:47;;;;;;;0.40;0.30;;;12.50;96.20;;;;;;5071105;28;20024;-78
2022/08/14 09:22:15;;;;;;;4.20;2.58;;;12.40;96.30;;;;;;5086990;28;20020;-78
2022/08/14 09:24:46;;;;;;;1.02;0.75;;;12.40;96.30;;;;;;5085725;28;20115;-79
2022/08/14 09:27:13;;;;;;;0.40;0.28;;;12.40;96.40;;;;;;5075932;28;20455;-77
2022/08/14 09:29:41;;;;;;;0.20;0.20;;;12.40;96.20;;;;;;5080757;28;20050;-78
2022/08/14 09:32:10;;;;;;;0.13;0.10;;;12.40;96.20;;;;;;5089109;28;20741;-76
2022/08/14 09:34:56;;;;;;;0.10;0.10;;;12.40;96.10;;;;;;5085186;28;20036;-77
2022/08/14 09:38:09;;;;;;;0.20;0.10;;;12.40;96.10;;;;;;5086657;28;20060;-77
2022/08/14 09:41:10;;;;;;;0.22;0.15;;;12.40;96.00;;;;;;5067077;28;20044;-79
2022/08/14 09:44:05;;;;;;;0.30;0.30;;;12.40;95.90;;;;;;5084989;28;20029;-79
2022/08/14 09:46:33;;;;;;;0.43;0.20;;;12.50;95.90;;;;;;5092230;28;20036;-76
2022/08/14 09:49:04;;;;;;;0.77;0.30;;;12.50;95.90;;;;;;5084175;28;20106;-80
2022/08/14 09:51:32;;;;;;;1.20;0.47;;;12.50;95.80;;;;;;5085126;28;20058;-76
2022/08/14 09:54:08;;;;;;;1.35;0.38;;;12.50;95.80;;;;;;5086240;28;20383;-78
2022/08/14 09:56:50;;;;;;;1.10;0.47;;;12.50;95.90;;;;;;5082680;28;20028;-77
2022/08/14 09:59:23;;;;;;;1.15;0.52;;;12.50;95.80;;;;;;5083100;28;20118;-79
2022/08/14 10:01:51;;;;;;;0.30;0.20;;;12.50;95.90;;;;;;5083816;28;20549;-76
2022/08/14 10:04:27;;;;;;;1.65;0.30;;;12.60;95.90;;;;;;5094278;28;20453;-78
2022/08/14 10:06:55;;;;;;;0.40;0.20;;;12.60;95.90;;;;;;5080551;28;20020;-77
2022/08/14 10:09:22;;;;;;;0.20;0.10;;;12.60;96.00;;;;;;5087016;28;20035;-78
2022/08/14 10:11:59;;;;;;;0.15;0.13;;;12.60;96.10;;;;;;5062762;28;20032;-79
2022/08/14 10:14:32;;;;;;;0.50;0.20;;;12.60;96.10;;;;;;5050424;28;20542;-77
2022/08/14 10:17:01;;;;;;;0.47;0.20;;;12.50;96.10;;;;;;5056564;28;20066;-77
2022/08/14 10:19:29;;;;;;;0.47;0.25;;;12.50;96.30;;;;;;5065749;28;20044;-77
2022/08/14 10:22:02;;;;;;;0.45;0.25;;;12.40;96.30;;;;;;5071175;28;20479;-78
2022/08/14 10:24:31;;;;;;;0.57;0.20;;;12.40;96.30;;;;;;5060542;28;20041;-78
2022/08/14 10:27:01;;;;;;;0.30;0.20;;;12.40;96.30;;;;;;5068509;28;20036;-79
2022/08/14 10:29:36;;;;;;;0.30;0.20;;;12.40;96.30;;;;;;5088749;28;20084;-79
2022/08/14 10:32:04;;;;;;;0.40;0.20;;;12.40;96.50;;;;;;5063045;28;20624;-79
2022/08/14 10:34:37;;;;;;;0.43;0.30;;;12.30;96.40;;;;;;5084728;28;20032;-78
2022/08/14 10:37:08;;;;;;;2.88;0.10;;;12.30;96.30;;;;;;5076858;28;20253;-79
2022/08/14 10:39:37;;;;;;;0.50;0.20;;;12.40;96.00;;;;;;5082785;28;20032;-77
2022/08/14 10:42:07;;;;;;;0.30;0.20;;;12.40;96.10;;;;;;5062453;28;20097;-82
2022/08/14 10:44:37;;;;;;;1.05;0.40;;;12.40;96.10;;;;;;5063065;28;20044;-82
2022/08/14 10:47:09;;;;;;;0.38;0.30;;;12.30;96.20;;;;;;5056457;28;20481;-83
2022/08/14 10:49:48;;;;;;;1.17;0.25;;;12.20;96.30;;;;;;5081627;28;20028;-84
2022/08/14 10:52:30;;;;;;;1.23;0.63;;;12.20;96.40;;;;;;5072800;28;20041;-81
2022/08/14 10:55:14;;;;;;;1.85;0.70;;;12.10;96.50;;;;;;5060366;28;20021;-82
2022/08/14 10:58:10;;;;;;;0.70;0.60;;;12.10;96.60;;;;;;5079673;28;20127;-84
2022/08/14 11:00:40;;;;;;;2.10;0.30;;;12.10;96.50;;;;;;5060695;28;20036;-81
2022/08/14 11:03:16;;;;;;;0.98;0.70;;;12.20;96.50;;;;;;5072166;28;20017;-82
2022/08/14 11:05:49;;;;;;;0.47;0.25;;;12.20;96.40;;;;;;5068933;28;20126;-81
2022/08/14 11:08:31;;;;;;;0.90;0.77;;;12.20;96.40;;;;;;5071482;28;20033;-80
2022/08/14 11:11:01;;;;;;;2.75;0.52;;;12.30;96.40;;;;;;5065364;28;20029;-78
2022/08/14 11:13:31;;;;;;;0.50;0.35;;;12.30;96.40;;;;;;5055526;28;20132;-79
2022/08/14 11:16:00;;;;;;;0.55;0.10;;;12.30;96.40;;;;;;5066021;28;20121;-79
2022/08/14 11:18:29;;;;;;;0.22;0.10;;;12.30;96.40;;;;;;5069941;28;20107;-80
2022/08/14 11:20:59;;;;;;;0.38;0.10;;;12.30;96.40;;;;;;5077876;28;20115;-78
2022/08/14 11:23:30;;;;;;;0.43;0.28;;;12.30;96.50;;;;;;5091949;28;20067;-78
2022/08/14 11:25:59;;;;;;;0.30;0.17;;;12.30;96.40;;;;;;5074462;28;20047;-79
2022/08/14 11:28:31;;;;;;;0.40;0.20;;;12.40;96.40;;;;;;5053738;28;20031;-79
2022/08/14 11:31:00;;;;;;;0.20;0.10;;;12.40;96.30;;;;;;5053268;28;20060;-80
2022/08/14 11:33:31;;;;;;;0.75;0.28;;;12.40;96.30;;;;;;5055743;28;20020;-79
2022/08/14 11:36:00;;;;;;;0.20;0.20;;;12.50;96.60;;;;;;5052508;28;20386;-79
2022/08/14 11:38:35;;;;;;;0.45;0.25;;;12.50;96.30;;;;;;5050439;28;20040;-79
2022/08/14 11:41:04;;;;;;;0.38;0.17;;;12.60;96.30;;;;;;5060700;28;20454;-80
2022/08/14 11:43:31;;;;;;;0.20;0.20;;;12.50;96.30;;;;;;5084167;28;20059;-82
2022/08/14 11:46:01;;;;;;;0.28;0.17;;;12.50;96.40;;;;;;5068895;28;20532;-79
2022/08/14 11:48:28;;;;;;;0.35;0.10;;;12.50;96.30;;;;;;5064365;28;20591;-79
2022/08/14 11:50:55;;;;;;;0.38;0.28;;;12.40;96.50;;;;;;5082732;28;20038;-79
2022/08/14 11:53:30;;;;;;;0.32;0.20;;;12.40;96.50;;;;;;5069882;28;20479;-81
2022/08/14 11:56:03;;;;;;;0.38;0.28;;;12.40;96.60;;;;;;5069547;28;20024;-82
2022/08/14 11:58:39;;;;;;;0.30;0.20;;;12.40;96.60;;;;;;5056809;28;20215;-81
2022/08/14 12:01:09;;;;;;;0.52;0.20;;;12.30;96.60;;;;;;5063925;28;20020;-79
2022/08/14 12:03:47;;;;;;;0.50;0.25;;;12.30;96.80;;;;;;5073020;28;20032;-79
2022/08/14 12:06:19;;;;;;;0.30;0.20;;;12.30;96.70;;;;;;5062256;28;20028;-78
2022/08/14 12:08:49;;;;;;;0.60;0.17;;;12.30;97.10;;;;;;5068733;28;20037;-81
2022/08/14 12:11:16;;;;;;;0.55;0.40;;;12.20;97.00;;;;;;5065859;28;20032;-78
2022/08/14 12:13:44;;;;;;;0.20;0.20;;;12.20;97.10;;;;;;5078358;28;20428;-78
2022/08/14 12:16:19;;;;;;;0.52;0.20;;;12.20;97.00;;;;;;5061493;28;20036;-79
2022/08/14 12:18:49;;;;;;;1.40;0.20;;;12.20;97.00;;;;;;5057960;28;20498;-80
2022/08/14 12:21:25;;;;;;;0.70;0.30;;;12.20;97.10;;;;;;5069813;28;20035;-78
2022/08/14 12:24:06;;;;;;;0.65;0.30;;;12.20;97.10;;;;;;5070541;28;20121;-79
2022/08/14 12:26:36;;;;;;;0.20;0.13;;;12.20;97.00;;;;;;5052212;28;20117;-76
2022/08/14 12:29:15;;;;;;;0.75;0.40;;;12.20;97.10;;;;;;5065456;28;20159;-79
2022/08/14 12:31:43;;;;;;;0.65;0.35;;;12.20;97.00;;;;;;5065469;28;20060;-78
2022/08/14 12:34:19;;;;;;;1.30;0.75;;;12.20;97.00;;;;;;5083456;28;20044;-78
2022/08/14 12:36:47;;;;;;;0.85;0.30;;;12.30;97.00;;;;;;5068602;28;20095;-78
2022/08/14 12:39:19;;;;;;;2.15;0.50;;;12.30;97.00;;;;;;5068170;28;20084;-76
2022/08/14 12:42:05;;;;;;;1.23;0.30;;;12.30;97.20;;;;;;5087832;28;20035;-77
2022/08/14 12:44:43;;;;;;;0.40;0.30;;;12.20;97.10;;;;;;5054159;28;20036;-81
2022/08/14 12:47:15;;;;;;;1.00;0.10;;;12.30;96.90;;;;;;5070621;28;20089;-80
2022/08/14 12:49:53;;;;;;;0.30;0.10;;;12.30;97.00;;;;;;5069642;28;20040;-80
2022/08/14 12:52:40;;;;;;;0.55;0.20;;;12.20;97.00;;;;;;5069238;28;20028;-78
2022/08/14 12:55:10;;;;;;;0.55;0.20;;;12.10;97.30;;;;;;5074853;28;20044;-79
2022/08/14 12:57:41;;;;;;;0.82;0.63;;;12.10;97.40;;;;;;5062282;28;20606;-80
2022/08/14 13:00:18;;;;;;;1.10;0.32;;;11.90;97.60;;;;;;5055619;28;20063;-79
2022/08/14 13:02:51;;;;;;;0.52;0.20;;;11.80;97.70;;;;;;5070209;28;20021;-80
2022/08/14 13:05:22;;;;;;;2.17;0.30;;;11.70;98.00;;;;;;5068571;28;20028;-82
2022/08/14 13:07:54;;;;;;;0.75;0.20;;;11.60;98.10;;;;;;5081692;28;20483;-81
2022/08/14 13:10:22;;;;;;;0.40;0.30;;;11.50;98.40;;;;;;5062034;28;20133;-78
2022/08/14 13:12:51;;;;;;;0.80;0.30;;;11.40;98.60;;;;;;5080630;28;20158;-80
2022/08/14 13:15:19;;;;;;;0.68;0.30;;;11.50;98.50;;;;;;5052213;28;20119;-80
2022/08/14 13:17:48;;;;;;;0.30;0.20;;;11.50;98.40;;;;;;5061564;28;20051;-79
2022/08/14 13:20:18;;;;;;;0.20;0.10;;;11.60;98.30;;;;;;5077186;28;20032;-79
2022/08/14 13:22:46;;;;;;;0.40;0.28;;;11.90;97.90;;;;;;5050007;28;20056;-76